Time;durP1;ratioP1;P1;durP2;ratioP2;P2;SDS_P1;SDS_P2;PMS_P1;PMS_P2;Temp;Humidity;BMP_temperature;BMP_pressure;BME280_temperature;BME280_humidity;BME280_pressure;Samples;Min_cycle;Max_cycle;Signal;HPM_P1;HPM_P2
2022/02/21 00:01:53;;;;;;;2.67;0.82;;;9.70;99.90;;;;;;5073463;28;20028;-63
2022/02/21 00:04:19;;;;;;;3.10;0.82;;;9.60;99.90;;;;;;5073396;28;20083;-62
2022/02/21 00:06:45;;;;;;;2.40;0.70;;;9.60;99.90;;;;;;5074777;28;20036;-62
2022/02/21 00:09:11;;;;;;;3.60;0.93;;;9.50;99.90;;;;;;5074685;28;20025;-63
2022/02/21 00:11:38;;;;;;;3.30;0.90;;;9.50;99.90;;;;;;5073178;28;20111;-62
2022/02/21 00:14:04;;;;;;;5.13;1.00;;;9.40;99.90;;;;;;5074555;28;20024;-63
2022/02/21 00:16:29;;;;;;;2.42;0.60;;;9.40;99.90;;;;;;5075125;28;20029;-63
2022/02/21 00:18:55;;;;;;;1.50;0.60;;;9.40;99.90;;;;;;5073434;28;20399;-63
2022/02/21 00:21:21;;;;;;;3.07;0.90;;;9.40;99.90;;;;;;5076819;28;20027;-63
2022/02/21 00:23:46;;;;;;;7.60;1.00;;;9.40;99.90;;;;;;5081146;28;20032;-62
2022/02/21 00:26:14;;;;;;;3.53;0.90;;;9.40;99.90;;;;;;5075970;28;20037;-62
2022/02/21 00:28:39;;;;;;;3.17;1.00;;;9.30;99.90;;;;;;5074879;28;20023;-63
2022/02/21 00:31:05;;;;;;;4.00;0.90;;;9.30;99.90;;;;;;5074420;28;20024;-62
2022/02/21 00:33:31;;;;;;;3.50;0.80;;;9.20;99.90;;;;;;5074602;28;20481;-63
2022/02/21 00:35:56;;;;;;;3.47;0.90;;;9.20;99.90;;;;;;5074769;28;20107;-63
2022/02/21 00:38:22;;;;;;;6.87;1.00;;;9.20;99.90;;;;;;5074575;28;20461;-63
2022/02/21 00:40:48;;;;;;;3.25;0.82;;;9.20;99.90;;;;;;5074183;28;20029;-63
2022/02/21 00:43:14;;;;;;;6.63;1.20;;;9.20;99.90;;;;;;5074199;28;20043;-63
2022/02/21 00:45:40;;;;;;;5.28;1.10;;;9.20;99.90;;;;;;5074052;28;20389;-64
2022/02/21 00:48:06;;;;;;;3.77;1.33;;;9.20;99.90;;;;;;5074247;28;20059;-63
2022/02/21 00:50:31;;;;;;;3.00;1.33;;;9.20;99.90;;;;;;5074130;28;20492;-62
2022/02/21 00:52:57;;;;;;;3.27;1.20;;;9.10;99.90;;;;;;5073887;28;20029;-62
2022/02/21 00:55:23;;;;;;;6.40;1.30;;;9.20;99.90;;;;;;5073878;28;20489;-64
2022/02/21 00:57:49;;;;;;;5.55;1.13;;;9.10;99.90;;;;;;5073734;28;20057;-63
2022/02/21 01:00:15;;;;;;;6.27;0.90;;;9.20;99.90;;;;;;5072454;28;20362;-63
2022/02/21 01:02:41;;;;;;;5.18;1.20;;;9.20;99.90;;;;;;5072569;28;20051;-63
2022/02/21 01:05:07;;;;;;;3.40;0.90;;;9.20;99.90;;;;;;5072405;28;20024;-62
2022/02/21 01:07:33;;;;;;;5.50;1.13;;;9.10;99.90;;;;;;5073803;28;20056;-63
2022/02/21 01:09:58;;;;;;;4.93;1.00;;;9.20;99.90;;;;;;5073740;28;20063;-62
2022/02/21 01:12:24;;;;;;;4.57;1.60;;;9.20;99.90;;;;;;5073635;28;20078;-63
2022/02/21 01:14:51;;;;;;;8.10;1.30;;;9.20;99.90;;;;;;5073890;28;20067;-64
2022/02/21 01:17:18;;;;;;;3.60;0.90;;;9.30;99.90;;;;;;5073754;28;20022;-62
2022/02/21 01:19:43;;;;;;;4.03;1.10;;;9.40;99.90;;;;;;5074133;28;20017;-63
2022/02/21 01:22:09;;;;;;;6.50;1.00;;;9.40;99.90;;;;;;5073744;28;20054;-61
2022/02/21 01:24:35;;;;;;;3.57;1.40;;;9.50;99.90;;;;;;5073835;28;20036;-62
2022/02/21 01:27:00;;;;;;;5.70;1.02;;;9.60;99.90;;;;;;5073234;28;20050;-62
2022/02/21 01:29:26;;;;;;;8.33;1.30;;;9.50;99.90;;;;;;5073249;28;20028;-62
2022/02/21 01:31:54;;;;;;;4.43;0.97;;;9.50;99.90;;;;;;5073242;28;20024;-62
2022/02/21 01:34:21;;;;;;;5.05;0.98;;;9.50;99.90;;;;;;5073693;28;20016;-62
2022/02/21 01:36:47;;;;;;;4.95;1.20;;;9.50;99.90;;;;;;5073234;28;20490;-62
2022/02/21 01:39:13;;;;;;;4.25;1.05;;;9.50;99.90;;;;;;5073135;28;20029;-64
2022/02/21 01:41:39;;;;;;;3.63;0.93;;;9.60;99.90;;;;;;5073019;28;20389;-62
2022/02/21 01:44:07;;;;;;;4.37;1.10;;;9.60;99.90;;;;;;5072998;28;20102;-61
2022/02/21 01:46:33;;;;;;;2.95;0.80;;;9.70;99.90;;;;;;5073156;28;20533;-62
2022/02/21 01:48:58;;;;;;;4.03;1.23;;;9.80;99.90;;;;;;5073258;28;20052;-62
2022/02/21 01:51:24;;;;;;;5.57;1.23;;;9.80;99.90;;;;;;5073085;28;20104;-64
2022/02/21 01:53:50;;;;;;;4.87;1.13;;;9.90;99.90;;;;;;5071744;28;20314;-62
2022/02/21 01:56:15;;;;;;;6.28;1.55;;;9.90;99.90;;;;;;5073269;28;20032;-62
2022/02/21 01:58:41;;;;;;;5.67;1.97;;;9.80;99.90;;;;;;5072991;28;20029;-62
2022/02/21 02:01:07;;;;;;;6.27;1.23;;;9.80;99.90;;;;;;5073448;28;20267;-63
2022/02/21 02:03:32;;;;;;;4.50;0.97;;;9.90;99.90;;;;;;5072911;28;20051;-62
2022/02/21 02:05:58;;;;;;;4.37;1.20;;;9.90;99.90;;;;;;5073039;28;20462;-62
2022/02/21 02:08:24;;;;;;;4.77;0.93;;;10.00;99.90;;;;;;5071666;28;20055;-62
2022/02/21 02:10:49;;;;;;;3.67;1.03;;;10.00;99.90;;;;;;5073187;28;20420;-63
2022/02/21 02:13:15;;;;;;;3.73;0.67;;;10.00;99.90;;;;;;5074128;28;20378;-62
2022/02/21 02:15:40;;;;;;;2.70;0.63;;;10.00;99.90;;;;;;5076812;28;20028;-63
2022/02/21 02:18:06;;;;;;;2.33;0.70;;;10.10;99.90;;;;;;5076830;28;20139;-63
2022/02/21 02:20:32;;;;;;;2.93;0.77;;;10.10;99.90;;;;;;5076923;28;20068;-63
2022/02/21 02:22:57;;;;;;;5.30;1.00;;;10.10;99.90;;;;;;5076952;28;20033;-63
2022/02/21 02:25:23;;;;;;;4.13;1.17;;;10.10;99.90;;;;;;5076622;28;20416;-62
2022/02/21 02:27:48;;;;;;;2.20;0.70;;;10.00;99.90;;;;;;5076618;28;20024;-63
2022/02/21 02:30:14;;;;;;;4.10;1.20;;;9.90;99.90;;;;;;5076698;28;20047;-63
2022/02/21 02:32:40;;;;;;;3.10;0.70;;;9.90;99.90;;;;;;5076432;28;20473;-62
2022/02/21 02:35:06;;;;;;;3.70;0.73;;;9.90;99.90;;;;;;5076411;28;20258;-62
2022/02/21 02:37:32;;;;;;;2.25;0.70;;;9.80;99.90;;;;;;5076737;28;20021;-63
2022/02/21 02:39:58;;;;;;;1.92;0.60;;;9.80;99.90;;;;;;5076422;28;20025;-62
2022/02/21 02:42:24;;;;;;;5.07;1.00;;;9.60;99.90;;;;;;5074948;28;20027;-63
2022/02/21 02:44:49;;;;;;;3.70;1.08;;;9.50;99.90;;;;;;5076252;28;20036;-62
2022/02/21 02:47:15;;;;;;;4.27;1.00;;;9.40;99.90;;;;;;5074888;28;20508;-63
2022/02/21 02:49:42;;;;;;;3.95;0.98;;;9.30;99.90;;;;;;5074785;28;20321;-63
2022/02/21 02:52:08;;;;;;;;;;;9.20;99.90;;;;;;5076571;28;20025;-63
2022/02/21 02:54:33;;;;;;;3.63;0.85;;;9.10;99.90;;;;;;5076407;28;20357;-63
2022/02/21 02:56:59;;;;;;;3.73;0.87;;;8.90;99.90;;;;;;5076249;28;20078;-63
2022/02/21 02:59:25;;;;;;;7.53;0.90;;;7.80;99.90;;;;;;5076053;28;20388;-63
2022/02/21 03:01:51;;;;;;;1.60;0.63;;;6.90;99.90;;;;;;5075746;28;20393;-63
2022/02/21 03:04:17;;;;;;;;;;;6.30;99.90;;;;;;5076188;28;20056;-62
2022/02/21 03:06:42;;;;;;;3.55;0.50;;;6.00;99.90;;;;;;5075696;28;19950;-62
2022/02/21 03:09:08;;;;;;;2.47;0.50;;;5.90;99.90;;;;;;5075686;28;20483;-62
2022/02/21 03:11:34;;;;;;;2.87;0.50;;;5.90;99.90;;;;;;5075852;28;20025;-60
2022/02/21 03:14:00;;;;;;;1.00;0.40;;;6.00;99.90;;;;;;5076263;28;20259;-62
2022/02/21 03:16:26;;;;;;;3.53;0.57;;;6.00;99.90;;;;;;5075665;28;20262;-61
2022/02/21 03:18:53;;;;;;;4.57;0.80;;;6.00;99.90;;;;;;5075468;28;20490;-62
2022/02/21 03:21:19;;;;;;;4.80;0.73;;;5.90;99.90;;;;;;5075443;28;20382;-62
2022/02/21 03:23:44;;;;;;;2.58;0.80;;;5.90;99.90;;;;;;5075277;28;20045;-61
2022/02/21 03:26:10;;;;;;;5.43;0.83;;;5.90;99.90;;;;;;5074392;28;20028;-62
2022/02/21 03:28:36;;;;;;;1.80;0.60;;;5.90;99.90;;;;;;5077130;28;20409;-62
2022/02/21 03:31:01;;;;;;;3.00;0.70;;;5.90;99.90;;;;;;5077804;28;20449;-62
2022/02/21 03:33:27;;;;;;;2.63;0.80;;;5.90;99.90;;;;;;5076161;28;20065;-63
2022/02/21 03:35:52;;;;;;;4.80;0.77;;;6.00;99.90;;;;;;5077786;28;20080;-64
2022/02/21 03:38:18;;;;;;;4.87;1.00;;;6.10;99.90;;;;;;5077514;28;20788;-60
2022/02/21 03:40:44;;;;;;;2.73;0.57;;;6.20;99.90;;;;;;5075374;28;20090;-57
2022/02/21 03:43:10;;;;;;;1.50;0.50;;;6.30;99.90;;;;;;5074945;28;20089;-59
2022/02/21 03:45:36;;;;;;;7.28;1.42;;;6.30;99.90;;;;;;5075065;28;20040;-61
2022/02/21 03:48:02;;;;;;;3.13;0.63;;;6.40;99.90;;;;;;5073608;28;20025;-62
2022/02/21 03:50:28;;;;;;;6.18;1.00;;;6.40;99.90;;;;;;5074871;28;20024;-61
2022/02/21 03:52:53;;;;;;;2.80;0.80;;;6.40;99.90;;;;;;5074722;28;20032;-61
2022/02/21 03:55:20;;;;;;;7.03;1.05;;;6.40;99.90;;;;;;5075163;28;20035;-60
2022/02/21 03:57:46;;;;;;;4.82;1.65;;;6.50;99.90;;;;;;5075113;28;20028;-62
2022/02/21 04:00:13;;;;;;;4.03;0.80;;;6.60;99.90;;;;;;5074678;28;20024;-63
2022/02/21 04:02:39;;;;;;;4.38;1.05;;;6.70;99.90;;;;;;5073048;28;20458;-62
2022/02/21 04:05:06;;;;;;;4.70;1.15;;;6.70;99.90;;;;;;5074808;28;20025;-63
2022/02/21 04:07:32;;;;;;;;;;;6.60;99.90;;;;;;5078508;28;20032;-63
2022/02/21 04:09:57;;;;;;;4.32;1.63;;;6.60;99.90;;;;;;5075272;28;19950;-63
2022/02/21 04:12:23;;;;;;;5.83;1.00;;;6.60;99.90;;;;;;5074388;28;20016;-63
2022/02/21 04:14:49;;;;;;;6.95;1.10;;;6.70;99.90;;;;;;5074554;28;20020;-59
2022/02/21 04:17:15;;;;;;;4.13;0.93;;;6.70;99.90;;;;;;5074638;28;20055;-63
2022/02/21 04:19:41;;;;;;;2.70;0.80;;;6.70;99.90;;;;;;5074487;28;20052;-63
2022/02/21 04:22:11;;;;;;;2.60;0.70;;;6.60;99.90;;;;;;5074317;28;20441;-63
2022/02/21 04:24:37;;;;;;;3.50;0.80;;;6.50;99.90;;;;;;5074493;28;20020;-63
2022/02/21 04:27:04;;;;;;;5.25;0.93;;;6.60;99.90;;;;;;5074117;28;20024;-62
2022/02/21 04:29:29;;;;;;;7.88;1.48;;;6.50;99.90;;;;;;5074147;28;20115;-63
2022/02/21 04:31:55;;;;;;;6.10;1.20;;;6.50;99.90;;;;;;5074034;28;20031;-63
2022/02/21 04:34:21;;;;;;;3.13;1.00;;;6.40;99.90;;;;;;5074308;28;20021;-63
2022/02/21 04:36:47;;;;;;;8.88;1.65;;;6.50;99.90;;;;;;5073804;28;20028;-63
2022/02/21 04:39:12;;;;;;;11.57;1.30;;;6.50;99.90;;;;;;5074427;28;20079;-63
2022/02/21 04:41:38;;;;;;;4.03;0.83;;;6.50;99.90;;;;;;5074515;28;20095;-61
2022/02/21 04:44:04;;;;;;;6.43;1.20;;;6.40;99.90;;;;;;5074222;28;20052;-61
2022/02/21 04:46:30;;;;;;;3.28;0.80;;;6.40;99.90;;;;;;5074556;28;20282;-62
2022/02/21 04:48:55;;;;;;;8.10;2.30;;;6.30;99.90;;;;;;5075783;28;20031;-63
2022/02/21 04:51:21;;;;;;;8.90;1.47;;;6.30;99.90;;;;;;5075854;28;20119;-62
2022/02/21 04:53:47;;;;;;;8.17;1.40;;;6.30;99.90;;;;;;5074010;28;20339;-62
2022/02/21 04:56:12;;;;;;;7.40;1.37;;;6.30;99.90;;;;;;5074211;28;20027;-62
2022/02/21 04:58:38;;;;;;;3.78;0.90;;;6.20;99.90;;;;;;5075174;28;20031;-62
2022/02/21 05:01:04;;;;;;;6.37;1.23;;;6.30;99.90;;;;;;5074827;28;20060;-62
2022/02/21 05:03:30;;;;;;;7.67;1.43;;;6.20;99.90;;;;;;5074197;28;20267;-61
2022/02/21 05:05:55;;;;;;;9.27;1.57;;;6.20;99.90;;;;;;5073644;28;20282;-62
2022/02/21 05:08:21;;;;;;;9.83;1.43;;;6.20;99.90;;;;;;5073883;28;20028;-61
2022/02/21 05:10:46;;;;;;;11.00;1.67;;;6.20;99.90;;;;;;5073296;28;20023;-62
2022/02/21 05:13:12;;;;;;;9.33;1.63;;;6.20;99.90;;;;;;5073520;28;20527;-63
2022/02/21 05:15:38;;;;;;;7.43;1.20;;;6.20;99.90;;;;;;5073454;28;20029;-60
2022/02/21 05:18:04;;;;;;;6.97;1.63;;;6.30;99.90;;;;;;5073811;28;20473;-61
2022/02/21 05:20:29;;;;;;;10.25;1.73;;;6.30;99.90;;;;;;5073475;28;20024;-62
2022/02/21 05:22:55;;;;;;;10.63;2.57;;;6.30;99.90;;;;;;5072866;28;20086;-61
2022/02/21 05:25:21;;;;;;;8.67;1.30;;;6.40;99.90;;;;;;5073095;28;20039;-62
2022/02/21 05:27:46;;;;;;;11.33;1.67;;;6.50;99.90;;;;;;5073311;28;20033;-67
2022/02/21 05:30:13;;;;;;;11.97;2.10;;;6.50;99.90;;;;;;5072019;28;20020;-62
2022/02/21 05:32:39;;;;;;;11.82;1.85;;;6.60;99.90;;;;;;5074454;28;20016;-66
2022/02/21 05:35:05;;;;;;;8.50;1.50;;;6.60;99.90;;;;;;5073434;28;20104;-66
2022/02/21 05:37:31;;;;;;;12.82;2.10;;;6.60;99.90;;;;;;5073211;28;20103;-66
2022/02/21 05:39:57;;;;;;;8.07;1.90;;;6.70;99.90;;;;;;5073241;28;20099;-66
2022/02/21 05:42:22;;;;;;;12.00;1.50;;;6.70;99.90;;;;;;5073325;28;20028;-66
2022/02/21 05:44:48;;;;;;;13.93;2.83;;;6.70;99.90;;;;;;5071952;28;20024;-66
2022/02/21 05:47:13;;;;;;;9.00;1.60;;;6.70;99.90;;;;;;5072949;28;20369;-66
2022/02/21 05:49:39;;;;;;;8.17;2.10;;;6.60;99.90;;;;;;5076460;28;20032;-66
2022/02/21 05:52:06;;;;;;;12.80;1.50;;;6.70;99.90;;;;;;5075845;28;20024;-61
2022/02/21 05:54:31;;;;;;;;;;;6.70;99.90;;;;;;5077483;28;20028;-62
2022/02/21 05:56:57;;;;;;;7.80;1.40;;;6.60;99.90;;;;;;5077407;28;19965;-62
2022/02/21 05:59:23;;;;;;;8.73;1.57;;;6.70;99.90;;;;;;5075867;28;20028;-64
2022/02/21 06:01:49;;;;;;;10.52;2.13;;;6.60;99.90;;;;;;5075301;28;20086;-63
2022/02/21 06:04:15;;;;;;;11.98;1.75;;;6.60;99.90;;;;;;5075521;28;20427;-61
2022/02/21 06:06:41;;;;;;;10.55;3.03;;;6.50;99.90;;;;;;5076627;28;20056;-62
2022/02/21 06:09:07;;;;;;;9.63;1.73;;;6.50;99.90;;;;;;5076736;28;20469;-62
2022/02/21 06:11:33;;;;;;;13.90;2.67;;;6.50;99.90;;;;;;5076899;28;20023;-61
2022/02/21 06:13:59;;;;;;;12.38;1.95;;;6.40;99.90;;;;;;5076595;28;20489;-62
2022/02/21 06:16:25;;;;;;;13.57;2.63;;;6.50;99.90;;;;;;5077291;28;20020;-61
2022/02/21 06:18:51;;;;;;;9.87;2.13;;;6.40;99.90;;;;;;5077099;28;20079;-60
2022/02/21 06:21:16;;;;;;;15.55;2.50;;;6.40;99.90;;;;;;5077212;28;20385;-61
2022/02/21 06:23:42;;;;;;;7.78;1.27;;;6.30;99.90;;;;;;5077291;28;20048;-61
2022/02/21 06:26:08;;;;;;;8.60;2.23;;;6.30;99.90;;;;;;5076961;28;20027;-62
2022/02/21 06:28:34;;;;;;;10.67;2.57;;;6.30;99.90;;;;;;5075134;28;20565;-62
2022/02/21 06:30:59;;;;;;;17.00;2.08;;;6.20;99.90;;;;;;5076299;28;20042;-60
2022/02/21 06:33:26;;;;;;;11.10;2.97;;;6.20;99.90;;;;;;5076029;28;20115;-63
2022/02/21 06:35:52;;;;;;;16.05;2.33;;;6.20;99.90;;;;;;5079037;28;20262;-60
2022/02/21 06:38:18;;;;;;;;;;;6.10;99.90;;;;;;5084427;28;20116;-58
2022/02/21 06:40:44;;;;;;;13.90;1.85;;;6.10;99.90;;;;;;5076126;28;19944;-59
2022/02/21 06:43:10;;;;;;;13.10;2.05;;;6.10;99.90;;;;;;5076126;28;20024;-59
2022/02/21 06:45:46;;;;;;;13.43;2.35;;;6.10;99.90;;;;;;5075685;28;20025;-62
2022/02/21 06:48:11;;;;;;;20.38;2.42;;;6.10;99.90;;;;;;5075745;28;20052;-61
2022/02/21 06:50:37;;;;;;;14.63;2.00;;;6.00;99.90;;;;;;5075710;28;20048;-62
2022/02/21 06:53:03;;;;;;;13.23;2.30;;;6.10;99.90;;;;;;5075557;28;20021;-62
2022/02/21 06:55:29;;;;;;;12.20;3.03;;;6.10;99.90;;;;;;5075223;28;20021;-61
2022/02/21 06:57:55;;;;;;;14.38;2.30;;;6.10;99.90;;;;;;5075767;28;20120;-62
2022/02/21 07:00:20;;;;;;;15.17;2.30;;;6.10;99.90;;;;;;5077155;28;20040;-63
2022/02/21 07:02:46;;;;;;;15.43;2.33;;;6.00;99.90;;;;;;5084933;28;20259;-62
2022/02/21 07:05:12;;;;;;;17.03;2.40;;;6.00;99.90;;;;;;5083256;28;20020;-63
2022/02/21 07:07:38;;;;;;;16.70;2.50;;;6.00;99.90;;;;;;5075470;28;20111;-64
2022/02/21 07:10:05;;;;;;;18.38;4.03;;;6.00;99.90;;;;;;5074314;28;20032;-62
2022/02/21 07:12:31;;;;;;;14.90;1.83;;;6.00;99.90;;;;;;5075597;28;20016;-62
2022/02/21 07:14:56;;;;;;;22.83;2.40;;;6.00;99.90;;;;;;5075917;28;20046;-62
2022/02/21 07:17:22;;;;;;;13.77;2.33;;;6.10;99.90;;;;;;5075660;28;20058;-61
2022/02/21 07:19:49;;;;;;;12.93;2.37;;;6.10;99.90;;;;;;5075687;28;20032;-58
2022/02/21 07:22:15;;;;;;;16.90;2.58;;;6.10;99.90;;;;;;5075428;28;20035;-62
2022/02/21 07:24:41;;;;;;;17.02;2.72;;;6.10;99.90;;;;;;5075320;28;20028;-62
2022/02/21 07:27:06;;;;;;;13.67;2.60;;;6.10;99.90;;;;;;5076488;28;20082;-61
2022/02/21 07:29:33;;;;;;;31.73;4.20;;;6.10;99.90;;;;;;5075321;28;20035;-61
2022/02/21 07:31:59;;;;;;;11.95;2.97;;;6.10;99.90;;;;;;5073710;28;20090;-62
2022/02/21 07:34:24;;;;;;;16.87;2.93;;;6.10;99.90;;;;;;5075724;28;20501;-63
2022/02/21 07:36:50;;;;;;;15.53;3.17;;;6.10;99.90;;;;;;5075104;28;20110;-62
2022/02/21 07:39:17;;;;;;;15.37;2.63;;;6.20;99.90;;;;;;5075419;28;20028;-62
2022/02/21 07:41:43;;;;;;;16.50;2.17;;;6.20;99.90;;;;;;5073929;28;20075;-62
2022/02/21 07:44:09;;;;;;;15.57;2.83;;;6.20;99.90;;;;;;5074893;28;20374;-61
2022/02/21 07:46:35;;;;;;;13.70;2.28;;;6.30;99.90;;;;;;5075309;28;20059;-64
2022/02/21 07:49:01;;;;;;;12.63;2.92;;;6.20;99.90;;;;;;5073994;28;20029;-63
2022/02/21 07:51:26;;;;;;;17.63;2.77;;;6.20;99.90;;;;;;5074394;28;20086;-61
2022/02/21 07:53:52;;;;;;;13.10;2.40;;;6.20;99.90;;;;;;5073403;28;20031;-63
2022/02/21 07:56:18;;;;;;;14.53;2.77;;;6.20;99.90;;;;;;5075060;28;20428;-63
2022/02/21 07:58:43;;;;;;;10.70;2.13;;;6.30;99.90;;;;;;5074618;28;20033;-62
2022/02/21 08:01:09;;;;;;;14.63;2.43;;;6.30;99.90;;;;;;5073642;28;20123;-62
2022/02/21 08:03:37;;;;;;;15.13;2.37;;;6.30;99.90;;;;;;5074906;28;20028;-62
2022/02/21 08:06:11;;;;;;;15.20;2.03;;;6.40;99.90;;;;;;5075803;28;20028;-63
2022/02/21 08:08:38;;;;;;;18.75;3.25;;;6.50;99.90;;;;;;5076282;28;20565;-61
2022/02/21 08:11:04;;;;;;;17.60;3.08;;;6.50;99.90;;;;;;5076592;28;20058;-61
2022/02/21 08:13:31;;;;;;;10.20;2.75;;;6.60;99.90;;;;;;5075968;28;20032;-61
2022/02/21 08:15:57;;;;;;;13.93;2.20;;;6.60;99.90;;;;;;5072837;28;20127;-60
2022/02/21 08:18:22;;;;;;;15.60;2.15;;;6.60;99.90;;;;;;5074242;28;20039;-62
2022/02/21 08:20:48;;;;;;;19.87;3.10;;;6.60;99.90;;;;;;5073142;28;20032;-61
2022/02/21 08:23:14;;;;;;;13.77;1.93;;;6.60;99.90;;;;;;5074254;28;20036;-61
2022/02/21 08:25:39;;;;;;;19.23;3.13;;;6.60;99.90;;;;;;5074635;28;20328;-62
2022/02/21 08:28:05;;;;;;;19.83;3.37;;;6.60;99.90;;;;;;5074400;28;20016;-62
2022/02/21 08:30:30;;;;;;;18.83;2.43;;;6.60;99.90;;;;;;5074127;28;20036;-62
2022/02/21 08:32:56;;;;;;;16.77;2.50;;;6.60;99.90;;;;;;5072310;28;20046;-61
2022/02/21 08:35:22;;;;;;;16.00;2.33;;;6.60;99.90;;;;;;5073878;28;20059;-61
2022/02/21 08:37:48;;;;;;;15.27;2.20;;;6.60;99.90;;;;;;5073675;28;20049;-59
2022/02/21 08:40:16;;;;;;;19.90;3.35;;;6.70;99.90;;;;;;5073577;28;20029;-61
2022/02/21 08:42:41;;;;;;;12.07;2.20;;;6.70;99.90;;;;;;5073341;28;20024;-60
2022/02/21 08:45:09;;;;;;;15.27;2.40;;;6.80;99.90;;;;;;5073823;28;20032;-61
2022/02/21 08:47:34;;;;;;;13.52;3.17;;;6.80;99.90;;;;;;5072127;28;20093;-61
2022/02/21 08:50:00;;;;;;;15.00;2.37;;;6.80;99.90;;;;;;5073822;28;20021;-60
2022/02/21 08:52:26;;;;;;;14.18;2.05;;;6.90;99.90;;;;;;5073218;28;20099;-60
2022/02/21 08:54:51;;;;;;;7.70;1.37;;;6.80;99.90;;;;;;5073660;28;20166;-61
2022/02/21 08:57:17;;;;;;;9.60;2.27;;;6.80;99.90;;;;;;5073263;28;20033;-61
2022/02/21 08:59:43;;;;;;;10.47;2.63;;;6.80;99.90;;;;;;5073572;28;20025;-60
2022/02/21 09:02:09;;;;;;;8.75;1.58;;;6.90;99.90;;;;;;5073126;28;20029;-60
2022/02/21 09:04:35;;;;;;;10.95;2.50;;;6.80;99.90;;;;;;5073718;28;20050;-61
2022/02/21 09:07:02;;;;;;;8.23;1.48;;;6.90;99.90;;;;;;5073536;28;20485;-62
2022/02/21 09:09:28;;;;;;;6.43;1.73;;;6.90;99.90;;;;;;5072723;28;20172;-62
2022/02/21 09:11:53;;;;;;;4.50;1.20;;;6.80;99.90;;;;;;5073971;28;20095;-63
2022/02/21 09:14:19;;;;;;;4.13;0.80;;;6.80;99.90;;;;;;5073835;28;20063;-62
2022/02/21 09:16:45;;;;;;;4.37;0.80;;;6.70;99.90;;;;;;5073500;28;20028;-62
2022/02/21 09:19:11;;;;;;;5.00;1.00;;;6.60;99.90;;;;;;5073735;28;20366;-63
2022/02/21 09:21:36;;;;;;;4.50;0.90;;;6.70;99.90;;;;;;5073054;28;20415;-63
2022/02/21 09:24:02;;;;;;;4.70;0.98;;;6.70;99.90;;;;;;5073081;28;20032;-61
2022/02/21 09:26:29;;;;;;;3.47;0.73;;;6.70;99.90;;;;;;5073802;28;20458;-63
2022/02/21 09:28:57;;;;;;;2.88;0.70;;;6.70;99.90;;;;;;5073687;28;20048;-63
2022/02/21 09:31:23;;;;;;;8.40;1.20;;;6.80;99.90;;;;;;5072971;28;20017;-64
2022/02/21 09:33:48;;;;;;;9.85;1.80;;;6.90;99.90;;;;;;5073096;28;20058;-62
2022/02/21 09:36:14;;;;;;;4.47;1.50;;;6.80;99.90;;;;;;5073659;28;20404;-63
2022/02/21 09:38:40;;;;;;;5.53;1.20;;;6.80;99.90;;;;;;5077169;28;20177;-63
2022/02/21 09:41:06;;;;;;;9.93;1.60;;;6.70;99.90;;;;;;5078775;28;20028;-62
2022/02/21 09:43:32;;;;;;;9.23;1.30;;;6.60;99.90;;;;;;5072993;28;20349;-63
2022/02/21 09:46:03;;;;;;;12.02;1.75;;;6.60;99.90;;;;;;5073152;28;20029;-62
2022/02/21 09:48:30;;;;;;;9.40;1.85;;;6.60;99.90;;;;;;5073100;28;20016;-62
2022/02/21 09:51:00;;;;;;;;;;;6.50;99.90;;;;;;5073415;28;20112;-62
2022/02/21 09:53:29;;;;;;;8.00;2.20;;;6.50;99.90;;;;;;5072836;28;19926;-62
2022/02/21 09:55:55;;;;;;;11.07;2.03;;;6.40;99.90;;;;;;5073080;28;20024;-59
2022/02/21 09:58:22;;;;;;;15.93;1.92;;;6.30;99.90;;;;;;5072867;28;20032;-61
2022/02/21 10:00:49;;;;;;;;;;;6.30;99.90;;;;;;5073750;28;20387;-62
2022/02/21 10:03:18;;;;;;;14.43;2.30;;;6.30;99.90;;;;;;5072857;28;19908;-62
2022/02/21 10:05:48;;;;;;;8.30;1.70;;;6.40;99.90;;;;;;5073321;28;20097;-62
2022/02/21 10:08:15;;;;;;;13.02;4.50;;;6.60;99.90;;;;;;5072525;28;20020;-60
2022/02/21 10:10:41;;;;;;;7.95;1.52;;;6.70;99.90;;;;;;5072762;28;20470;-63
2022/02/21 10:13:07;;;;;;;9.25;1.73;;;6.60;99.90;;;;;;5071218;28;20027;-63
2022/02/21 10:15:34;;;;;;;11.65;2.20;;;6.60;99.90;;;;;;5072274;28;20021;-63
2022/02/21 10:18:17;;;;;;;6.80;1.40;;;6.70;99.90;;;;;;5072430;28;20424;-63
2022/02/21 10:20:58;;;;;;;8.88;1.70;;;6.80;99.90;;;;;;5072313;28;20101;-63
2022/02/21 10:23:25;;;;;;;8.05;1.95;;;6.70;99.90;;;;;;5072096;28;20104;-61
2022/02/21 10:26:07;;;;;;;8.93;1.52;;;6.80;99.90;;;;;;5072399;28;20024;-62
2022/02/21 10:28:36;;;;;;;11.30;1.90;;;7.60;99.90;;;;;;5072858;28;20028;-62
2022/02/21 10:31:14;;;;;;;4.90;1.23;;;9.50;99.90;;;;;;5071235;28;20158;-63
2022/02/21 10:34:01;;;;;;;8.50;1.60;;;9.80;99.90;;;;;;5072290;28;20379;-62
2022/02/21 10:36:44;;;;;;;7.88;2.30;;;9.60;99.90;;;;;;5076245;28;20044;-61
2022/02/21 10:39:18;;;;;;;8.68;1.92;;;10.30;99.90;;;;;;5078734;28;20040;-62
2022/02/21 10:41:53;;;;;;;8.60;1.50;;;10.90;99.90;;;;;;5078400;28;20095;-63
2022/02/21 10:44:23;;;;;;;6.60;1.70;;;11.00;99.90;;;;;;5078113;28;20029;-62
2022/02/21 10:47:02;;;;;;;4.88;1.65;;;11.10;99.90;;;;;;5078159;28;20127;-62
2022/02/21 10:49:28;;;;;;;6.57;1.70;;;11.00;99.90;;;;;;5076645;28;20044;-61
2022/02/21 10:51:57;;;;;;;11.02;1.67;;;10.90;99.80;;;;;;5077668;28;20469;-64
2022/02/21 10:54:35;;;;;;;5.97;1.60;;;10.40;99.20;;;;;;5077544;28;20024;-63
2022/02/21 10:57:02;;;;;;;8.90;2.63;;;9.90;99.90;;;;;;5076118;28;20040;-62
2022/02/21 10:59:29;;;;;;;10.30;1.88;;;9.40;99.90;;;;;;5076161;28;20029;-59
2022/02/21 11:01:56;;;;;;;7.75;1.55;;;9.10;99.90;;;;;;5075778;28;20033;-61
2022/02/21 11:04:24;;;;;;;7.70;1.70;;;8.70;99.90;;;;;;5076318;28;20026;-61
2022/02/21 11:06:54;;;;;;;6.55;1.52;;;8.60;99.90;;;;;;5076221;28;20499;-61
2022/02/21 11:09:20;;;;;;;8.05;1.38;;;8.50;99.90;;;;;;5075977;28;20463;-62
2022/02/21 11:11:48;;;;;;;10.25;1.58;;;8.40;99.90;;;;;;5075748;28;20017;-57
2022/02/21 11:14:20;;;;;;;6.70;1.60;;;8.20;99.90;;;;;;5075947;28;20179;-61
2022/02/21 11:16:47;;;;;;;8.63;1.90;;;8.10;99.90;;;;;;5075625;28;20028;-60
2022/02/21 11:19:17;;;;;;;8.02;1.50;;;8.00;99.90;;;;;;5076021;28;20052;-61
2022/02/21 11:21:44;;;;;;;8.88;1.63;;;7.90;99.90;;;;;;5075624;28;20039;-62
2022/02/21 11:24:13;;;;;;;14.30;2.10;;;7.80;99.90;;;;;;5075444;28;20060;-62
2022/02/21 11:26:48;;;;;;;10.57;2.42;;;7.80;99.90;;;;;;5075521;28;20029;-62
2022/02/21 11:29:47;;;;;;;10.45;2.03;;;7.70;99.90;;;;;;5075773;28;20354;-63
2022/02/21 11:32:18;;;;;;;9.65;1.60;;;7.70;99.90;;;;;;5072620;28;20182;-63
2022/02/21 11:34:48;;;;;;;6.80;1.58;;;7.60;99.90;;;;;;5077670;28;20179;-61
2022/02/21 11:37:25;;;;;;;13.77;2.25;;;7.70;99.90;;;;;;5076044;28;20020;-63
2022/02/21 11:39:58;;;;;;;10.82;1.55;;;7.70;99.90;;;;;;5075560;28;20031;-62
2022/02/21 11:42:29;;;;;;;7.38;2.38;;;7.70;99.90;;;;;;5073631;28;20378;-61
2022/02/21 11:45:00;;;;;;;12.43;2.13;;;7.70;99.90;;;;;;5073945;28;20394;-62
2022/02/21 11:47:39;;;;;;;15.15;2.30;;;7.70;99.90;;;;;;5074153;28;20082;-59
2022/02/21 11:50:17;;;;;;;8.82;1.77;;;7.60;99.90;;;;;;5075115;28;20362;-62
2022/02/21 11:52:48;;;;;;;6.80;1.50;;;7.70;99.90;;;;;;5079032;28;20021;-62
2022/02/21 11:55:32;;;;;;;9.75;2.15;;;7.60;99.90;;;;;;5077144;28;20021;-62
2022/02/21 11:58:16;;;;;;;6.10;1.63;;;7.70;99.90;;;;;;5074619;28;20077;-60
2022/02/21 12:00:47;;;;;;;6.65;2.38;;;7.60;99.90;;;;;;5075017;28;20020;-60
2022/02/21 12:03:15;;;;;;;6.70;1.40;;;7.60;99.90;;;;;;5074496;28;20025;-61
2022/02/21 12:05:41;;;;;;;3.63;1.05;;;7.60;99.90;;;;;;5075912;28;20035;-63
2022/02/21 12:08:25;;;;;;;;;;;7.60;99.90;;;;;;5079609;28;20420;-63
2022/02/21 12:11:17;;;;;;;5.82;1.50;;;7.60;99.90;;;;;;5077289;28;19911;-61
2022/02/21 12:13:47;;;;;;;4.15;1.30;;;7.70;99.90;;;;;;5073641;28;20024;-62
2022/02/21 12:16:14;;;;;;;9.00;1.50;;;7.70;99.90;;;;;;5074101;28;20496;-62
2022/02/21 12:18:45;;;;;;;10.50;1.65;;;7.70;99.90;;;;;;5072753;28;20031;-62
2022/02/21 12:21:21;;;;;;;4.63;1.50;;;7.70;99.90;;;;;;5074205;28;20381;-64
2022/02/21 12:23:53;;;;;;;11.05;2.92;;;7.80;99.90;;;;;;5073899;28;20044;-61
2022/02/21 12:26:22;;;;;;;7.82;1.60;;;7.80;99.90;;;;;;5073908;28;20107;-63
2022/02/21 12:29:17;;;;;;;10.38;1.30;;;7.80;99.90;;;;;;5072554;28;20070;-62
2022/02/21 12:31:55;;;;;;;9.80;1.83;;;7.80;99.90;;;;;;5072739;28;20067;-62
2022/02/21 12:34:32;;;;;;;6.95;1.63;;;7.90;99.90;;;;;;5073737;28;20020;-61
2022/02/21 12:37:02;;;;;;;8.63;1.83;;;7.90;99.90;;;;;;5072635;28;20121;-63
2022/02/21 12:39:33;;;;;;;6.88;1.67;;;8.00;99.90;;;;;;5073840;28;20021;-61
2022/02/21 12:42:00;;;;;;;11.85;3.33;;;8.00;99.90;;;;;;5074103;28;20381;-62
2022/02/21 12:44:26;;;;;;;11.90;2.58;;;8.00;99.90;;;;;;5073980;28;20028;-62
2022/02/21 12:46:56;;;;;;;7.07;1.55;;;8.00;99.90;;;;;;5072576;28;20109;-62
2022/02/21 12:49:29;;;;;;;9.35;2.05;;;8.00;99.90;;;;;;5073729;28;20444;-60
2022/02/21 12:52:08;;;;;;;8.98;2.05;;;8.00;99.90;;;;;;5072207;28;20051;-60
2022/02/21 12:54:35;;;;;;;6.38;1.60;;;8.00;99.90;;;;;;5072108;28;20021;-61
2022/02/21 12:57:04;;;;;;;11.75;2.20;;;7.90;99.90;;;;;;5073458;28;20082;-61